createdAt,value
2023-03-17T00:00:53.972Z,2.37
2023-03-17T00:03:29.415Z,2.97
2023-03-17T00:06:01.452Z,2.77
2023-03-17T00:08:34.274Z,2.47
2023-03-17T00:11:04.477Z,2.87
2023-03-17T00:13:34.110Z,2.43
2023-03-17T00:16:07.572Z,3.17
2023-03-17T00:18:40.312Z,2.53
2023-03-17T00:21:14.847Z,3.23
2023-03-17T00:23:46.373Z,2.90
2023-03-17T00:26:16.212Z,3.20
2023-03-17T00:28:46.213Z,2.40
2023-03-17T00:31:18.938Z,2.83
2023-03-17T00:33:54.123Z,2.50
2023-03-17T00:36:26.599Z,3.30
2023-03-17T00:38:57.367Z,2.77
2023-03-17T00:41:29.585Z,3.00
2023-03-17T00:43:59.359Z,2.90
2023-03-17T00:46:35.984Z,2.77
2023-03-17T00:51:46.008Z,2.80
2023-03-17T00:54:19.500Z,2.90
2023-03-17T00:56:50.930Z,3.20
2023-03-17T00:59:29.824Z,2.87
2023-03-17T01:02:00.412Z,3.07
2023-03-17T01:04:34.010Z,3.20
2023-03-17T01:07:04.204Z,2.73
2023-03-17T01:09:35.021Z,2.77
2023-03-17T01:12:04.705Z,3.17
2023-03-17T01:14:37.887Z,3.40
2023-03-17T01:17:12.879Z,3.50
2023-03-17T01:19:45.461Z,3.57
2023-03-17T01:22:15.502Z,3.23
2023-03-17T01:24:45.144Z,3.47
2023-03-17T01:27:16.117Z,3.20
2023-03-17T01:29:46.222Z,3.50
2023-03-17T01:32:16.360Z,3.23
2023-03-17T01:34:48.643Z,3.30
2023-03-17T01:37:18.277Z,2.60
2023-03-17T01:39:47.900Z,3.57
2023-03-17T01:42:17.706Z,3.47
2023-03-17T01:45:03.113Z,3.70
2023-03-17T01:47:33.239Z,3.20
2023-03-17T01:50:09.934Z,3.33
2023-03-17T01:52:41.577Z,3.10
2023-03-17T01:55:14.864Z,3.40
2023-03-17T01:57:50.855Z,3.47
2023-03-17T02:00:23.605Z,3.13
2023-03-17T02:02:57.444Z,2.90
2023-03-17T02:05:33.397Z,3.77
2023-03-17T02:08:03.224Z,3.67
2023-03-17T02:10:33.596Z,3.00
2023-03-17T02:13:05.885Z,3.80
2023-03-17T02:15:40.796Z,3.40
2023-03-17T02:18:11.705Z,3.53
2023-03-17T02:21:16.878Z,4.10
2023-03-17T02:23:49.905Z,3.47
2023-03-17T02:26:21.071Z,3.80
2023-03-17T02:28:50.720Z,3.97
2023-03-17T02:31:21.969Z,3.60
2023-03-17T02:33:54.299Z,3.57
2023-03-17T02:36:24.725Z,4.10
2023-03-17T02:38:57.602Z,3.90
2023-03-17T02:41:27.528Z,3.70
2023-03-17T02:43:57.179Z,4.50
2023-03-17T02:46:27.213Z,3.67
2023-03-17T02:48:57.793Z,3.47
2023-03-17T02:51:27.433Z,3.30
2023-03-17T02:53:59.710Z,4.17
2023-03-17T02:56:29.505Z,4.00
2023-03-17T02:58:59.132Z,3.70
2023-03-17T03:01:29.562Z,4.13
2023-03-17T03:03:59.364Z,4.23
2023-03-17T03:06:29.116Z,3.60
2023-03-17T03:09:01.427Z,3.90
2023-03-17T03:11:31.066Z,4.17
2023-03-17T03:14:00.701Z,4.03
2023-03-17T03:16:30.581Z,3.77
2023-03-17T03:19:00.226Z,4.33
2023-03-17T03:21:31.661Z,3.30
2023-03-17T03:24:04.113Z,4.07
2023-03-17T03:26:33.882Z,3.70
2023-03-17T03:29:03.580Z,3.97
2023-03-17T03:31:33.217Z,3.80
2023-03-17T03:34:02.847Z,3.40
2023-03-17T03:36:32.498Z,3.17
2023-03-17T03:39:04.713Z,4.07
2023-03-17T03:41:34.463Z,4.20
2023-03-17T03:44:04.143Z,3.10
2023-03-17T03:46:33.933Z,3.17
2023-03-17T03:49:03.651Z,3.13
2023-03-17T03:51:33.340Z,3.40
2023-03-17T03:54:06.346Z,3.30
2023-03-17T03:56:36.050Z,2.90
2023-03-17T03:59:06.228Z,3.00
2023-03-17T04:01:36.048Z,3.90
2023-03-17T04:04:05.828Z,3.30
2023-03-17T04:06:35.452Z,2.70
2023-03-17T04:09:09.286Z,3.60
2023-03-17T04:11:38.942Z,3.30
2023-03-17T04:14:09.119Z,3.93
2023-03-17T04:16:39.043Z,3.47
2023-03-17T04:19:09.898Z,3.57
2023-03-17T04:21:39.972Z,2.90
2023-03-17T04:24:12.657Z,3.77
2023-03-17T04:26:42.358Z,3.00
2023-03-17T04:29:15.696Z,3.10
2023-03-17T04:31:45.381Z,3.27
2023-03-17T04:34:18.744Z,3.63
2023-03-17T04:36:49.956Z,3.70
2023-03-17T04:39:22.301Z,3.00
2023-03-17T04:41:51.966Z,3.93
2023-03-17T04:44:21.626Z,3.00
2023-03-17T04:46:51.667Z,4.00
2023-03-17T04:49:21.981Z,3.10
2023-03-17T04:51:51.629Z,3.73
2023-03-17T04:54:24.130Z,3.07
2023-03-17T04:56:53.925Z,3.80
2023-03-17T04:59:23.593Z,3.20
2023-03-17T05:01:54.018Z,3.33
2023-03-17T05:04:31.070Z,3.10
2023-03-17T05:07:01.282Z,3.77
2023-03-17T05:09:33.599Z,3.40
2023-03-17T05:12:03.236Z,3.33
2023-03-17T05:14:33.233Z,3.00
2023-03-17T05:17:02.857Z,3.30
2023-03-17T05:19:32.473Z,3.10
2023-03-17T05:22:02.177Z,3.97
2023-03-17T05:24:34.448Z,3.47
2023-03-17T05:27:04.056Z,3.90
2023-03-17T05:29:33.807Z,3.67
2023-03-17T05:32:03.443Z,3.57
2023-03-17T05:34:33.609Z,4.80
2023-03-17T05:37:03.466Z,4.17
2023-03-17T05:39:36.031Z,3.60
2023-03-17T05:42:06.277Z,3.43
2023-03-17T05:44:36.249Z,4.17
2023-03-17T05:47:05.928Z,3.53
2023-03-17T05:49:35.763Z,3.20
2023-03-17T05:52:05.715Z,3.70
2023-03-17T05:54:38.203Z,3.30
2023-03-17T05:57:07.884Z,3.60
2023-03-17T05:59:37.570Z,3.10
2023-03-17T06:02:07.303Z,2.83
2023-03-17T06:04:37.019Z,3.67
2023-03-17T06:07:07.844Z,3.53
2023-03-17T06:09:40.141Z,3.23
2023-03-17T06:12:11.052Z,4.30
2023-03-17T06:14:40.778Z,3.40
2023-03-17T06:17:12.563Z,3.17
2023-03-17T06:19:42.776Z,3.80
2023-03-17T06:22:12.577Z,3.60
2023-03-17T06:24:44.794Z,3.40
2023-03-17T06:27:14.645Z,3.90
2023-03-17T06:29:44.257Z,3.40
2023-03-17T06:32:20.725Z,3.10
2023-03-17T06:34:51.909Z,3.30
2023-03-17T06:37:21.517Z,3.37
2023-03-17T06:39:53.900Z,2.83
2023-03-17T06:42:23.616Z,3.17
2023-03-17T06:44:53.970Z,2.90
2023-03-17T06:47:25.974Z,3.20
2023-03-17T06:49:56.329Z,3.30
2023-03-17T06:52:26.582Z,3.47
2023-03-17T06:54:58.785Z,2.87
2023-03-17T06:57:28.404Z,3.30
2023-03-17T06:59:58.037Z,3.17
2023-03-17T07:02:28.098Z,3.10
2023-03-17T07:04:58.270Z,3.53
2023-03-17T07:07:28.093Z,3.53
2023-03-17T07:10:00.376Z,3.20
2023-03-17T07:12:30.015Z,2.80
2023-03-17T07:15:00.174Z,3.07
2023-03-17T07:17:30.192Z,2.77
2023-03-17T07:20:00.203Z,3.70
2023-03-17T07:22:30.294Z,3.20
2023-03-17T07:25:02.620Z,3.13
2023-03-17T07:27:32.282Z,3.20
2023-03-17T07:30:04.437Z,3.43
2023-03-17T07:32:35.565Z,2.80
2023-03-17T07:35:05.272Z,3.57
2023-03-17T07:37:35.009Z,3.60
2023-03-17T07:40:09.283Z,3.50
2023-03-17T07:42:39.116Z,3.40
2023-03-17T07:45:10.320Z,3.50
2023-03-17T07:47:41.688Z,3.00
2023-03-17T07:50:12.441Z,3.73
2023-03-17T07:52:42.246Z,3.00
2023-03-17T07:55:15.990Z,3.30
2023-03-17T07:57:46.274Z,3.50
2023-03-17T08:00:17.651Z,3.03
2023-03-17T08:02:59.600Z,3.03
2023-03-17T08:05:37.082Z,3.07
2023-03-17T08:08:07.616Z,3.43
2023-03-17T08:10:39.904Z,4.00
2023-03-17T08:13:09.598Z,3.23
2023-03-17T08:15:39.484Z,3.30
2023-03-17T08:18:09.625Z,3.70
2023-03-17T08:20:39.452Z,2.80
2023-03-17T08:23:09.099Z,2.90
2023-03-17T08:25:41.423Z,3.03
2023-03-17T08:28:11.124Z,3.07
2023-03-17T08:30:41.837Z,3.23
2023-03-17T08:33:11.773Z,3.27
2023-03-17T08:35:43.752Z,3.03
2023-03-17T08:38:13.938Z,3.00
2023-03-17T08:40:46.194Z,2.63
2023-03-17T08:43:16.524Z,3.00
2023-03-17T08:45:46.245Z,3.37
2023-03-17T08:48:15.968Z,2.27
2023-03-17T08:50:46.065Z,3.53
2023-03-17T08:53:15.721Z,3.40
2023-03-17T08:55:47.942Z,3.40
2023-03-17T08:58:19.772Z,3.47
2023-03-17T09:00:50.126Z,3.50
2023-03-17T09:03:20.838Z,3.17
2023-03-17T09:05:51.590Z,3.77
2023-03-17T09:08:21.301Z,3.20
2023-03-17T09:10:54.376Z,3.23
2023-03-17T09:13:24.411Z,3.47
2023-03-17T09:15:54.384Z,3.53
2023-03-17T09:18:24.038Z,3.10
2023-03-17T09:20:53.716Z,3.90
2023-03-17T09:23:23.608Z,3.53
2023-03-17T09:25:55.978Z,4.03
2023-03-17T09:28:26.298Z,3.30
2023-03-17T09:31:01.410Z,3.70
2023-03-17T09:33:32.093Z,3.87
2023-03-17T09:36:02.217Z,3.60
2023-03-17T09:38:31.917Z,2.83
2023-03-17T09:41:26.201Z,3.53
2023-03-17T09:44:03.459Z,3.60
2023-03-17T09:46:47.283Z,3.30
2023-03-17T09:49:22.870Z,3.40
2023-03-17T09:51:53.309Z,3.53
2023-03-17T09:54:29.316Z,3.30
2023-03-17T09:57:09.399Z,3.30
2023-03-17T09:59:43.891Z,3.20
2023-03-17T10:02:21.329Z,3.57
2023-03-17T10:04:51.907Z,3.17
2023-03-17T10:07:27.274Z,2.97
2023-03-17T10:10:03.769Z,3.40
2023-03-17T10:12:46.250Z,3.10
2023-03-17T10:15:24.209Z,2.97
2023-03-17T10:17:54.751Z,3.37
2023-03-17T10:20:30.192Z,2.70
2023-03-17T10:23:04.304Z,3.20
2023-03-17T10:25:36.679Z,3.13
2023-03-17T10:28:15.093Z,3.10
2023-03-17T10:30:44.908Z,3.77
2023-03-17T10:33:14.918Z,3.07
2023-03-17T10:35:45.109Z,3.70
2023-03-17T10:38:18.999Z,3.00
2023-03-17T10:40:57.161Z,3.47
2023-03-17T10:43:32.377Z,3.17
2023-03-17T10:46:04.391Z,3.27
2023-03-17T10:48:39.149Z,2.43
2023-03-17T10:51:11.425Z,2.93
2023-03-17T10:53:43.455Z,3.03
2023-03-17T10:56:20.911Z,2.70
2023-03-17T10:58:55.582Z,3.10
2023-03-17T11:01:31.278Z,2.97
2023-03-17T11:04:02.831Z,2.83
2023-03-17T11:06:36.559Z,2.40
2023-03-17T11:09:12.552Z,2.90
2023-03-17T11:11:47.504Z,2.80
2023-03-17T11:14:22.405Z,2.70
2023-03-17T11:16:56.924Z,3.23
2023-03-17T11:19:41.195Z,2.80
2023-03-17T11:22:15.912Z,3.43
2023-03-17T11:24:59.766Z,2.97
2023-03-17T11:27:34.353Z,2.53
2023-03-17T11:30:28.002Z,2.80
2023-03-17T11:33:01.748Z,2.70
2023-03-17T11:35:53.245Z,2.60
2023-03-17T11:38:26.212Z,3.13
2023-03-17T11:41:35.797Z,3.30
2023-03-17T11:44:55.249Z,2.50
2023-03-17T11:47:42.887Z,3.10
2023-03-17T11:50:24.895Z,2.80
2023-03-17T11:53:13.270Z,3.00
2023-03-17T11:55:48.487Z,2.57
2023-03-17T11:58:28.742Z,3.03
2023-03-17T12:01:00.931Z,3.13
2023-03-17T12:03:40.449Z,3.00
2023-03-17T12:06:19.796Z,3.37
2023-03-17T12:08:53.553Z,3.00
2023-03-17T12:11:30.158Z,2.70
2023-03-17T12:14:04.917Z,2.60
2023-03-17T12:16:40.694Z,2.83
2023-03-17T12:19:20.703Z,2.73
2023-03-17T12:21:55.745Z,2.53
2023-03-17T12:24:34.486Z,2.37
2023-03-17T12:27:08.631Z,2.40
2023-03-17T12:29:47.482Z,2.43
2023-03-17T12:32:23.739Z,2.73
2023-03-17T12:34:59.733Z,3.13
2023-03-17T12:37:30.914Z,2.90
2023-03-17T12:40:07.208Z,2.83
2023-03-17T12:42:45.731Z,3.30
2023-03-17T12:45:37.327Z,2.73
2023-03-17T12:48:24.516Z,2.93
2023-03-17T12:51:22.734Z,3.13
2023-03-17T12:53:53.123Z,2.80
2023-03-17T12:56:27.447Z,2.57
2023-03-17T12:59:02.968Z,3.30
2023-03-17T13:01:36.098Z,2.93
2023-03-17T13:04:19.590Z,2.60
2023-03-17T13:07:02.806Z,3.13
2023-03-17T13:09:45.405Z,2.87
2023-03-17T13:12:53.730Z,2.27
2023-03-17T13:15:26.810Z,3.20
2023-03-17T13:18:33.494Z,2.60
2023-03-17T13:21:15.377Z,2.70
2023-03-17T13:23:49.758Z,3.77
2023-03-17T13:26:22.466Z,3.40
2023-03-17T13:28:53.734Z,2.40
2023-03-17T13:31:38.508Z,2.83
2023-03-17T13:34:19.529Z,2.30
2023-03-17T13:37:05.576Z,2.50
2023-03-17T13:40:00.028Z,2.53
2023-03-17T13:42:46.910Z,2.30
2023-03-17T13:45:28.619Z,2.00
2023-03-17T13:48:34.737Z,2.43
2023-03-17T13:51:15.303Z,2.00
2023-03-17T13:53:49.773Z,2.00
2023-03-17T13:56:27.970Z,2.73
2023-03-17T13:59:10.458Z,2.30
2023-03-17T14:01:44.040Z,2.40
2023-03-17T14:04:24.156Z,2.13
2023-03-17T14:06:57.283Z,2.20
2023-03-17T14:09:37.844Z,2.00
2023-03-17T14:12:16.065Z,2.03
2023-03-17T14:14:55.457Z,2.67
2023-03-17T14:17:28.474Z,2.10
2023-03-17T14:20:24.214Z,2.37
2023-03-17T14:22:57.890Z,2.30
2023-03-17T14:25:30.196Z,2.20
2023-03-17T14:28:02.830Z,2.43
2023-03-17T14:30:36.186Z,2.17
2023-03-17T14:33:08.895Z,2.13
2023-03-17T14:35:42.387Z,2.27
2023-03-17T14:38:22.131Z,1.97
2023-03-17T14:40:52.666Z,2.53
2023-03-17T14:43:25.701Z,2.70
2023-03-17T14:46:01.603Z,2.53
2023-03-17T14:48:34.952Z,2.53
2023-03-17T14:51:08.005Z,2.60
2023-03-17T14:53:41.697Z,2.97
2023-03-17T14:56:12.151Z,2.17
2023-03-17T14:58:47.952Z,2.30
2023-03-17T15:01:20.152Z,2.70
2023-03-17T15:03:59.067Z,2.10
2023-03-17T15:06:30.652Z,2.10
2023-03-17T15:09:02.825Z,1.83
2023-03-17T15:11:41.724Z,2.27
2023-03-17T15:14:21.556Z,2.00
2023-03-17T15:16:53.997Z,2.27
2023-03-17T15:19:28.898Z,2.70
2023-03-17T15:22:00.593Z,2.30
2023-03-17T15:24:44.187Z,2.13
2023-03-17T15:27:17.936Z,1.90
2023-03-17T15:29:50.174Z,2.27
2023-03-17T15:32:21.431Z,2.10
2023-03-17T15:34:52.259Z,2.20
2023-03-17T15:37:24.255Z,2.03
2023-03-17T15:39:55.858Z,2.27
2023-03-17T15:42:28.893Z,2.63
2023-03-17T15:45:02.770Z,2.73
2023-03-17T15:47:35.424Z,1.97
2023-03-17T15:50:15.796Z,2.73
2023-03-17T15:52:46.379Z,2.33
2023-03-17T15:55:23.650Z,2.80
2023-03-17T15:57:56.561Z,2.20
2023-03-17T16:00:31.736Z,2.30
2023-03-17T16:03:07.164Z,2.37
2023-03-17T16:05:38.823Z,2.30
2023-03-17T16:08:09.440Z,2.13
2023-03-17T16:10:39.062Z,2.20
2023-03-17T16:13:09.577Z,2.93
2023-03-17T16:15:44.274Z,2.63
2023-03-17T16:18:18.247Z,2.30
2023-03-17T16:20:50.125Z,2.53
2023-03-17T16:23:21.938Z,2.20
2023-03-17T16:25:53.964Z,2.80
2023-03-17T16:28:27.300Z,2.43
2023-03-17T16:31:01.818Z,2.10
2023-03-17T16:33:34.089Z,2.13
2023-03-17T16:36:04.031Z,2.63
2023-03-17T16:38:36.243Z,2.63
2023-03-17T16:41:11.067Z,2.00
2023-03-17T16:43:40.980Z,2.30
2023-03-17T16:46:15.058Z,2.70
2023-03-17T16:48:44.717Z,1.97
2023-03-17T16:51:14.329Z,2.17
2023-03-17T16:53:44.007Z,2.00
2023-03-17T16:56:18.717Z,2.20
2023-03-17T16:58:49.562Z,2.07
2023-03-17T17:01:24.460Z,2.37
2023-03-17T17:03:54.533Z,2.53
2023-03-17T17:06:26.135Z,1.80
2023-03-17T17:08:55.876Z,1.90
2023-03-17T17:11:25.502Z,3.30
2023-03-17T17:13:55.642Z,2.07
2023-03-17T17:16:31.532Z,2.30
2023-03-17T17:19:02.874Z,2.13
2023-03-17T17:21:33.985Z,2.33
2023-03-17T17:24:03.654Z,2.13
2023-03-17T17:26:33.255Z,2.30
2023-03-17T17:29:02.878Z,2.23
2023-03-17T17:31:35.247Z,1.80
2023-03-17T17:34:04.925Z,1.87
2023-03-17T17:36:35.325Z,4.60
2023-03-17T17:39:06.901Z,2.20
2023-03-17T17:41:37.147Z,1.80
2023-03-17T17:44:06.857Z,2.40
2023-03-17T17:46:39.246Z,2.63
2023-03-17T17:49:09.053Z,2.17
2023-03-17T17:51:38.669Z,1.83
2023-03-17T17:54:10.303Z,2.50
2023-03-17T17:56:46.766Z,2.60
2023-03-17T17:59:17.258Z,2.40
2023-03-17T18:01:49.425Z,2.50
2023-03-17T18:04:19.541Z,2.73
2023-03-17T18:06:50.047Z,2.00
2023-03-17T18:09:20.645Z,2.10
2023-03-17T18:11:50.327Z,2.60
2023-03-17T18:14:21.013Z,2.10
2023-03-17T18:16:54.277Z,2.40
2023-03-17T18:19:24.605Z,2.90
2023-03-17T18:21:54.317Z,2.20
2023-03-17T18:24:24.196Z,1.63
2023-03-17T18:26:53.874Z,2.60
2023-03-17T18:29:23.508Z,1.87
2023-03-17T18:31:57.427Z,2.00
2023-03-17T18:34:32.074Z,2.00
2023-03-17T18:37:04.116Z,2.47
2023-03-17T18:39:34.848Z,1.70
2023-03-17T18:42:05.397Z,2.50
2023-03-17T18:44:35.067Z,1.60
2023-03-17T18:47:07.497Z,2.07
2023-03-17T18:49:37.745Z,2.87
2023-03-17T18:52:07.434Z,2.00
2023-03-17T18:54:37.626Z,1.83
2023-03-17T18:57:07.308Z,1.70
2023-03-17T18:59:37.992Z,2.70
2023-03-17T19:02:11.692Z,2.30
2023-03-17T19:04:46.144Z,2.40
2023-03-17T19:07:16.486Z,2.00
2023-03-17T19:09:46.692Z,2.97
2023-03-17T19:12:16.934Z,2.20
2023-03-17T19:14:46.577Z,2.00
2023-03-17T19:17:19.277Z,2.20
2023-03-17T19:19:50.369Z,2.03
2023-03-17T19:22:20.025Z,2.40
2023-03-17T19:24:50.344Z,2.33
2023-03-17T19:27:20.733Z,3.40
2023-03-17T19:29:51.091Z,2.20
2023-03-17T19:32:23.342Z,2.37
2023-03-17T19:34:53.599Z,2.23
2023-03-17T19:37:23.833Z,2.83
2023-03-17T19:39:53.509Z,2.10
2023-03-17T19:42:23.178Z,2.50
2023-03-17T19:44:53.286Z,2.60
2023-03-17T19:47:25.758Z,2.40
2023-03-17T19:49:55.388Z,2.23
2023-03-17T19:52:27.824Z,2.53
2023-03-17T19:54:58.695Z,3.53
2023-03-17T19:57:28.497Z,2.90
2023-03-17T19:59:58.205Z,3.07
2023-03-17T20:02:30.435Z,2.40
2023-03-17T20:05:00.392Z,3.30
2023-03-17T20:07:30.180Z,3.30
2023-03-17T20:09:59.820Z,2.97
2023-03-17T20:12:29.502Z,2.80
2023-03-17T20:15:00.205Z,2.87
2023-03-17T20:17:32.631Z,2.43
2023-03-17T20:20:03.718Z,2.73
2023-03-17T20:22:33.578Z,2.83
2023-03-17T20:25:03.278Z,2.47
2023-03-17T20:27:35.903Z,3.57
2023-03-17T20:30:07.362Z,3.40
2023-03-17T20:32:39.851Z,2.83
2023-03-17T20:35:10.539Z,2.53
2023-03-17T20:37:40.219Z,3.03
2023-03-17T20:40:11.471Z,2.63
2023-03-17T20:42:41.642Z,2.37
2023-03-17T20:45:11.585Z,3.57
2023-03-17T20:47:43.818Z,3.50
2023-03-17T20:50:14.847Z,3.20
2023-03-17T20:52:45.705Z,2.40
2023-03-17T20:55:16.537Z,3.00
2023-03-17T20:57:48.698Z,2.87
2023-03-17T21:00:21.316Z,3.20
2023-03-17T21:02:53.888Z,2.80
2023-03-17T21:05:27.072Z,3.57
2023-03-17T21:07:57.672Z,2.50
2023-03-17T21:10:27.455Z,2.80
2023-03-17T21:12:57.356Z,2.40
2023-03-17T21:15:27.146Z,2.93
2023-03-17T21:17:59.411Z,3.50
2023-03-17T21:20:29.551Z,2.97
2023-03-17T21:23:00.445Z,2.70
2023-03-17T21:25:30.291Z,2.43
2023-03-17T21:28:00.196Z,2.80
2023-03-17T21:30:30.472Z,2.60
2023-03-17T21:33:03.300Z,2.43
2023-03-17T21:35:35.540Z,3.10
2023-03-17T21:38:05.229Z,3.07
2023-03-17T21:40:35.298Z,2.90
2023-03-17T21:43:05.769Z,2.77
2023-03-17T21:45:35.783Z,2.80
2023-03-17T21:48:08.143Z,2.80
2023-03-17T21:50:38.573Z,3.03
2023-03-17T21:53:09.309Z,2.70
2023-03-17T21:55:39.480Z,2.33
2023-03-17T21:58:09.184Z,2.77
2023-03-17T22:00:45.244Z,2.70
2023-03-17T22:03:18.399Z,2.63
2023-03-17T22:05:48.467Z,2.70
2023-03-17T22:08:18.390Z,3.03
2023-03-17T22:10:48.099Z,3.03
2023-03-17T22:13:17.773Z,3.07
2023-03-17T22:15:47.682Z,2.77
2023-03-17T22:18:20.045Z,2.90
2023-03-17T22:20:50.478Z,2.60
2023-03-17T22:23:20.634Z,2.73
2023-03-17T22:25:50.737Z,2.27
2023-03-17T22:28:21.031Z,2.80
2023-03-17T22:30:51.015Z,2.47
2023-03-17T22:33:23.370Z,2.40
2023-03-17T22:35:53.110Z,2.97
2023-03-17T22:38:24.861Z,3.03
2023-03-17T22:41:03.742Z,2.60
2023-03-17T22:43:33.415Z,2.93
2023-03-17T22:46:03.243Z,3.30
2023-03-17T22:48:36.071Z,2.93
2023-03-17T22:51:07.267Z,2.70
2023-03-17T22:53:37.791Z,3.67
2023-03-17T22:56:08.582Z,3.20
2023-03-17T22:58:38.588Z,3.77
2023-03-17T23:01:09.152Z,3.33
2023-03-17T23:03:42.132Z,3.50
2023-03-17T23:06:13.241Z,3.40
2023-03-17T23:08:45.846Z,3.00
2023-03-17T23:11:22.250Z,3.07
2023-03-17T23:13:53.047Z,2.40
2023-03-17T23:16:23.299Z,3.00
2023-03-17T23:18:55.716Z,2.70
2023-03-17T23:21:28.601Z,2.80
2023-03-17T23:23:58.552Z,2.90
2023-03-17T23:26:28.427Z,2.37
2023-03-17T23:28:58.103Z,2.60
2023-03-17T23:31:27.758Z,2.30
2023-03-17T23:33:59.985Z,2.20
2023-03-17T23:36:29.860Z,2.47
2023-03-17T23:38:59.502Z,2.60
2023-03-17T23:41:29.474Z,3.17
2023-03-17T23:43:59.062Z,2.80
2023-03-17T23:46:29.106Z,2.50
2023-03-17T23:49:01.483Z,2.13
2023-03-17T23:51:31.544Z,2.77
2023-03-17T23:54:01.171Z,2.73
2023-03-17T23:56:30.863Z,2.70
2023-03-17T23:59:00.504Z,2.40
